sensor_id;sensor_type;location;lat;lon;timestamp;pressure;altitude;pressure_sealevel;temperature
79488;BMP180;68949;53.176;18.088;2023-07-28T00:00:43;99422.80;;;
79488;BMP180;68949;53.176;18.088;2023-07-28T00:03:30;99423.60;;;
79488;BMP180;68949;53.176;18.088;2023-07-28T00:05:56;99422.40;;;
79488;BMP180;68949;53.176;18.088;2023-07-28T00:08:23;99422.20;;;
79488;BMP180;68949;53.176;18.088;2023-07-28T00:10:50;99417.40;;;
79488;BMP180;68949;53.176;18.088;2023-07-28T00:13:16;99412.00;;;
79488;BMP180;68949;53.176;18.088;2023-07-28T00:15:43;99409.60;;;
79488;BMP180;68949;53.176;18.088;2023-07-28T00:18:09;99402.20;;;
79488;BMP180;68949;53.176;18.088;2023-07-28T00:20:36;99402.80;;;
79488;BMP180;68949;53.176;18.088;2023-07-28T00:23:03;99400.60;;;
79488;BMP180;68949;53.176;18.088;2023-07-28T00:25:29;99403.80;;;
79488;BMP180;68949;53.176;18.088;2023-07-28T00:27:56;99395.80;;;
79488;BMP180;68949;53.176;18.088;2023-07-28T00:30:23;99404.80;;;
79488;BMP180;68949;53.176;18.088;2023-07-28T00:32:49;99409.40;;;
79488;BMP180;68949;53.176;18.088;2023-07-28T00:35:16;99406.00;;;
79488;BMP180;68949;53.176;18.088;2023-07-28T00:37:43;99406.60;;;
79488;BMP180;68949;53.176;18.088;2023-07-28T00:40:10;99415.20;;;
79488;BMP180;68949;53.176;18.088;2023-07-28T00:42:38;99412.60;;;
79488;BMP180;68949;53.176;18.088;2023-07-28T00:45:06;99413.00;;;
79488;BMP180;68949;53.176;18.088;2023-07-28T00:47:33;99408.60;;;
79488;BMP180;68949;53.176;18.088;2023-07-28T00:50:00;99409.60;;;
79488;BMP180;68949;53.176;18.088;2023-07-28T00:52:27;99403.40;;;
79488;BMP180;68949;53.176;18.088;2023-07-28T00:54:54;99397.60;;;
79488;BMP180;68949;53.176;18.088;2023-07-28T00:57:20;99384.20;;;
79488;BMP180;68949;53.176;18.088;2023-07-28T00:59:47;99377.00;;;
79488;BMP180;68949;53.176;18.088;2023-07-28T01:02:14;99371.80;;;
79488;BMP180;68949;53.176;18.088;2023-07-28T01:04:41;99377.60;;;
79488;BMP180;68949;53.176;18.088;2023-07-28T01:07:14;99371.80;;;
79488;BMP180;68949;53.176;18.088;2023-07-28T01:10:11;99370.00;;;
79488;BMP180;68949;53.176;18.088;2023-07-28T01:12:39;99362.20;;;
79488;BMP180;68949;53.176;18.088;2023-07-28T01:15:06;99363.60;;;
79488;BMP180;68949;53.176;18.088;2023-07-28T01:17:33;99365.60;;;
79488;BMP180;68949;53.176;18.088;2023-07-28T01:20:00;99362.60;;;
79488;BMP180;68949;53.176;18.088;2023-07-28T01:22:48;99365.60;;;
79488;BMP180;68949;53.176;18.088;2023-07-28T01:25:28;99362.00;;;
79488;BMP180;68949;53.176;18.088;2023-07-28T01:27:57;99359.60;;;
79488;BMP180;68949;53.176;18.088;2023-07-28T01:30:27;99355.20;;;
79488;BMP180;68949;53.176;18.088;2023-07-28T01:32:55;99351.20;;;
79488;BMP180;68949;53.176;18.088;2023-07-28T01:35:24;99356.40;;;
79488;BMP180;68949;53.176;18.088;2023-07-28T01:37:51;99360.00;;;
79488;BMP180;68949;53.176;18.088;2023-07-28T01:40:18;99358.20;;;
79488;BMP180;68949;53.176;18.088;2023-07-28T01:42:45;99358.60;;;
79488;BMP180;68949;53.176;18.088;2023-07-28T01:45:12;99352.80;;;
79488;BMP180;68949;53.176;18.088;2023-07-28T01:47:39;99353.20;;;
79488;BMP180;68949;53.176;18.088;2023-07-28T01:50:06;99351.40;;;
79488;BMP180;68949;53.176;18.088;2023-07-28T01:52:33;99348.40;;;
79488;BMP180;68949;53.176;18.088;2023-07-28T01:54:59;99340.40;;;
79488;BMP180;68949;53.176;18.088;2023-07-28T01:57:27;99335.80;;;
79488;BMP180;68949;53.176;18.088;2023-07-28T01:59:54;99344.80;;;
79488;BMP180;68949;53.176;18.088;2023-07-28T02:02:21;99339.20;;;
79488;BMP180;68949;53.176;18.088;2023-07-28T02:04:48;99334.80;;;
79488;BMP180;68949;53.176;18.088;2023-07-28T02:07:14;99330.00;;;
79488;BMP180;68949;53.176;18.088;2023-07-28T02:09:41;99325.40;;;
79488;BMP180;68949;53.176;18.088;2023-07-28T02:12:08;99328.20;;;
79488;BMP180;68949;53.176;18.088;2023-07-28T02:14:35;99326.00;;;
79488;BMP180;68949;53.176;18.088;2023-07-28T02:17:01;99321.80;;;
79488;BMP180;68949;53.176;18.088;2023-07-28T02:19:28;99321.40;;;
79488;BMP180;68949;53.176;18.088;2023-07-28T02:21:58;99316.60;;;
79488;BMP180;68949;53.176;18.088;2023-07-28T02:24:24;99313.80;;;
79488;BMP180;68949;53.176;18.088;2023-07-28T02:26:51;99308.40;;;
79488;BMP180;68949;53.176;18.088;2023-07-28T02:29:18;99307.60;;;
79488;BMP180;68949;53.176;18.088;2023-07-28T02:31:44;99308.20;;;
79488;BMP180;68949;53.176;18.088;2023-07-28T02:34:11;99314.00;;;
79488;BMP180;68949;53.176;18.088;2023-07-28T02:36:38;99315.40;;;
79488;BMP180;68949;53.176;18.088;2023-07-28T02:39:05;99318.00;;;
79488;BMP180;68949;53.176;18.088;2023-07-28T02:41:31;99320.00;;;
79488;BMP180;68949;53.176;18.088;2023-07-28T02:43:58;99317.00;;;
79488;BMP180;68949;53.176;18.088;2023-07-28T02:46:24;99316.20;;;
79488;BMP180;68949;53.176;18.088;2023-07-28T02:48:52;99316.80;;;
79488;BMP180;68949;53.176;18.088;2023-07-28T02:51:19;99320.00;;;
79488;BMP180;68949;53.176;18.088;2023-07-28T02:53:46;99314.40;;;
79488;BMP180;68949;53.176;18.088;2023-07-28T02:56:13;99309.80;;;
79488;BMP180;68949;53.176;18.088;2023-07-28T02:58:39;99314.40;;;
79488;BMP180;68949;53.176;18.088;2023-07-28T03:01:06;99317.60;;;
79488;BMP180;68949;53.176;18.088;2023-07-28T03:03:36;99317.80;;;
79488;BMP180;68949;53.176;18.088;2023-07-28T03:06:02;99313.20;;;
79488;BMP180;68949;53.176;18.088;2023-07-28T03:08:29;99310.60;;;
79488;BMP180;68949;53.176;18.088;2023-07-28T03:11:08;99306.20;;;
79488;BMP180;68949;53.176;18.088;2023-07-28T03:13:35;99308.20;;;
79488;BMP180;68949;53.176;18.088;2023-07-28T03:16:02;99304.80;;;
79488;BMP180;68949;53.176;18.088;2023-07-28T03:18:29;99313.00;;;
79488;BMP180;68949;53.176;18.088;2023-07-28T03:20:55;99324.40;;;
79488;BMP180;68949;53.176;18.088;2023-07-28T03:23:22;99321.00;;;
79488;BMP180;68949;53.176;18.088;2023-07-28T03:25:49;99323.20;;;
79488;BMP180;68949;53.176;18.088;2023-07-28T03:28:15;99319.20;;;
79488;BMP180;68949;53.176;18.088;2023-07-28T03:30:42;99316.60;;;
79488;BMP180;68949;53.176;18.088;2023-07-28T03:33:09;99306.80;;;
79488;BMP180;68949;53.176;18.088;2023-07-28T03:35:36;99308.40;;;
79488;BMP180;68949;53.176;18.088;2023-07-28T03:38:08;99316.60;;;
79488;BMP180;68949;53.176;18.088;2023-07-28T03:40:35;99314.20;;;
79488;BMP180;68949;53.176;18.088;2023-07-28T03:43:03;99311.20;;;
79488;BMP180;68949;53.176;18.088;2023-07-28T03:45:30;99306.40;;;
79488;BMP180;68949;53.176;18.088;2023-07-28T03:47:56;99311.60;;;
79488;BMP180;68949;53.176;18.088;2023-07-28T03:50:23;99314.00;;;
79488;BMP180;68949;53.176;18.088;2023-07-28T03:52:52;99304.40;;;
79488;BMP180;68949;53.176;18.088;2023-07-28T03:55:19;99308.20;;;
79488;BMP180;68949;53.176;18.088;2023-07-28T03:57:46;99307.40;;;
79488;BMP180;68949;53.176;18.088;2023-07-28T04:00:13;99306.20;;;
79488;BMP180;68949;53.176;18.088;2023-07-28T04:02:40;99309.40;;;
79488;BMP180;68949;53.176;18.088;2023-07-28T04:05:07;99306.00;;;
79488;BMP180;68949;53.176;18.088;2023-07-28T04:07:34;99305.20;;;
79488;BMP180;68949;53.176;18.088;2023-07-28T04:10:01;99294.20;;;
79488;BMP180;68949;53.176;18.088;2023-07-28T04:12:27;99295.00;;;
79488;BMP180;68949;53.176;18.088;2023-07-28T04:14:56;99290.40;;;
79488;BMP180;68949;53.176;18.088;2023-07-28T04:17:22;99290.60;;;
79488;BMP180;68949;53.176;18.088;2023-07-28T04:19:49;99284.20;;;
79488;BMP180;68949;53.176;18.088;2023-07-28T04:22:16;99283.20;;;
79488;BMP180;68949;53.176;18.088;2023-07-28T04:24:48;99285.60;;;
79488;BMP180;68949;53.176;18.088;2023-07-28T04:27:15;99285.60;;;
79488;BMP180;68949;53.176;18.088;2023-07-28T04:29:42;99284.20;;;
79488;BMP180;68949;53.176;18.088;2023-07-28T04:32:10;99285.60;;;
79488;BMP180;68949;53.176;18.088;2023-07-28T04:34:37;99277.60;;;
79488;BMP180;68949;53.176;18.088;2023-07-28T04:37:12;99280.20;;;
79488;BMP180;68949;53.176;18.088;2023-07-28T04:39:59;99280.00;;;
79488;BMP180;68949;53.176;18.088;2023-07-28T04:42:29;99273.80;;;
79488;BMP180;68949;53.176;18.088;2023-07-28T04:44:56;99275.60;;;
79488;BMP180;68949;53.176;18.088;2023-07-28T04:47:23;99277.80;;;
79488;BMP180;68949;53.176;18.088;2023-07-28T04:49:49;99273.00;;;
79488;BMP180;68949;53.176;18.088;2023-07-28T04:52:36;99275.60;;;
79488;BMP180;68949;53.176;18.088;2023-07-28T04:55:22;99273.60;;;
79488;BMP180;68949;53.176;18.088;2023-07-28T04:57:49;99269.40;;;
79488;BMP180;68949;53.176;18.088;2023-07-28T05:00:16;99267.20;;;
79488;BMP180;68949;53.176;18.088;2023-07-28T05:02:43;99265.40;;;
79488;BMP180;68949;53.176;18.088;2023-07-28T05:05:10;99264.60;;;
79488;BMP180;68949;53.176;18.088;2023-07-28T05:07:37;99259.80;;;
79488;BMP180;68949;53.176;18.088;2023-07-28T05:10:04;99261.80;;;
79488;BMP180;68949;53.176;18.088;2023-07-28T05:12:31;99260.00;;;
79488;BMP180;68949;53.176;18.088;2023-07-28T05:14:58;99260.20;;;
79488;BMP180;68949;53.176;18.088;2023-07-28T05:17:25;99261.00;;;
79488;BMP180;68949;53.176;18.088;2023-07-28T05:20:11;99262.60;;;
79488;BMP180;68949;53.176;18.088;2023-07-28T05:22:47;99264.40;;;
79488;BMP180;68949;53.176;18.088;2023-07-28T05:25:14;99266.20;;;
79488;BMP180;68949;53.176;18.088;2023-07-28T05:27:42;99264.60;;;
79488;BMP180;68949;53.176;18.088;2023-07-28T05:30:09;99267.60;;;
79488;BMP180;68949;53.176;18.088;2023-07-28T05:32:36;99268.40;;;
79488;BMP180;68949;53.176;18.088;2023-07-28T05:35:25;99263.40;;;
79488;BMP180;68949;53.176;18.088;2023-07-28T05:37:52;99262.20;;;
79488;BMP180;68949;53.176;18.088;2023-07-28T05:40:19;99259.80;;;
79488;BMP180;68949;53.176;18.088;2023-07-28T05:42:46;99257.60;;;
79488;BMP180;68949;53.176;18.088;2023-07-28T05:45:12;99257.80;;;
79488;BMP180;68949;53.176;18.088;2023-07-28T05:47:39;99250.00;;;
79488;BMP180;68949;53.176;18.088;2023-07-28T05:50:06;99258.20;;;
79488;BMP180;68949;53.176;18.088;2023-07-28T05:52:33;99261.40;;;
79488;BMP180;68949;53.176;18.088;2023-07-28T05:55:00;99260.20;;;
79488;BMP180;68949;53.176;18.088;2023-07-28T05:57:27;99258.40;;;
79488;BMP180;68949;53.176;18.088;2023-07-28T05:59:53;99258.20;;;
79488;BMP180;68949;53.176;18.088;2023-07-28T06:02:20;99252.20;;;
79488;BMP180;68949;53.176;18.088;2023-07-28T06:04:53;99261.80;;;
79488;BMP180;68949;53.176;18.088;2023-07-28T06:07:20;99258.80;;;
79488;BMP180;68949;53.176;18.088;2023-07-28T06:09:47;99258.40;;;
79488;BMP180;68949;53.176;18.088;2023-07-28T06:12:14;99261.00;;;
79488;BMP180;68949;53.176;18.088;2023-07-28T06:14:42;99260.60;;;
79488;BMP180;68949;53.176;18.088;2023-07-28T06:17:10;99268.40;;;
79488;BMP180;68949;53.176;18.088;2023-07-28T06:19:37;99266.20;;;
79488;BMP180;68949;53.176;18.088;2023-07-28T06:22:04;99270.20;;;
79488;BMP180;68949;53.176;18.088;2023-07-28T06:24:33;99266.80;;;
79488;BMP180;68949;53.176;18.088;2023-07-28T06:27:01;99269.80;;;
79488;BMP180;68949;53.176;18.088;2023-07-28T06:29:33;99270.00;;;
79488;BMP180;68949;53.176;18.088;2023-07-28T06:32:00;99267.60;;;
79488;BMP180;68949;53.176;18.088;2023-07-28T06:34:27;99263.80;;;
79488;BMP180;68949;53.176;18.088;2023-07-28T06:36:54;99257.80;;;
79488;BMP180;68949;53.176;18.088;2023-07-28T06:39:21;99244.40;;;
79488;BMP180;68949;53.176;18.088;2023-07-28T06:41:48;99253.00;;;
79488;BMP180;68949;53.176;18.088;2023-07-28T06:44:15;99260.00;;;
79488;BMP180;68949;53.176;18.088;2023-07-28T06:46:42;99254.00;;;
79488;BMP180;68949;53.176;18.088;2023-07-28T06:49:09;99255.40;;;
79488;BMP180;68949;53.176;18.088;2023-07-28T06:51:36;99256.80;;;
79488;BMP180;68949;53.176;18.088;2023-07-28T06:54:03;99255.20;;;
79488;BMP180;68949;53.176;18.088;2023-07-28T06:56:30;99247.40;;;
79488;BMP180;68949;53.176;18.088;2023-07-28T06:58:56;99247.00;;;
79488;BMP180;68949;53.176;18.088;2023-07-28T07:01:23;99248.60;;;
79488;BMP180;68949;53.176;18.088;2023-07-28T07:03:50;99239.40;;;
79488;BMP180;68949;53.176;18.088;2023-07-28T07:06:17;99238.20;;;
79488;BMP180;68949;53.176;18.088;2023-07-28T07:08:43;99243.40;;;
79488;BMP180;68949;53.176;18.088;2023-07-28T07:11:10;99231.80;;;
79488;BMP180;68949;53.176;18.088;2023-07-28T07:13:37;99235.00;;;
79488;BMP180;68949;53.176;18.088;2023-07-28T07:16:05;99245.40;;;
79488;BMP180;68949;53.176;18.088;2023-07-28T07:18:33;99248.80;;;
79488;BMP180;68949;53.176;18.088;2023-07-28T07:21:03;99249.20;;;
79488;BMP180;68949;53.176;18.088;2023-07-28T07:23:30;99254.00;;;
79488;BMP180;68949;53.176;18.088;2023-07-28T07:25:57;99257.60;;;
79488;BMP180;68949;53.176;18.088;2023-07-28T07:28:23;99260.20;;;
79488;BMP180;68949;53.176;18.088;2023-07-28T07:30:50;99258.60;;;
79488;BMP180;68949;53.176;18.088;2023-07-28T07:33:17;99256.20;;;
79488;BMP180;68949;53.176;18.088;2023-07-28T07:35:43;99262.40;;;
79488;BMP180;68949;53.176;18.088;2023-07-28T07:38:10;99266.00;;;
79488;BMP180;68949;53.176;18.088;2023-07-28T07:40:37;99266.60;;;
79488;BMP180;68949;53.176;18.088;2023-07-28T07:43:04;99265.40;;;
79488;BMP180;68949;53.176;18.088;2023-07-28T07:45:32;99264.00;;;
79488;BMP180;68949;53.176;18.088;2023-07-28T07:47:59;99265.00;;;
79488;BMP180;68949;53.176;18.088;2023-07-28T07:50:26;99263.40;;;
79488;BMP180;68949;53.176;18.088;2023-07-28T07:52:52;99265.80;;;
79488;BMP180;68949;53.176;18.088;2023-07-28T07:55:19;99259.60;;;
79488;BMP180;68949;53.176;18.088;2023-07-28T07:57:46;99262.80;;;
79488;BMP180;68949;53.176;18.088;2023-07-28T08:00:13;99257.20;;;
79488;BMP180;68949;53.176;18.088;2023-07-28T08:02:40;99265.60;;;
79488;BMP180;68949;53.176;18.088;2023-07-28T08:05:07;99258.80;;;
79488;BMP180;68949;53.176;18.088;2023-07-28T08:07:34;99252.60;;;
79488;BMP180;68949;53.176;18.088;2023-07-28T08:10:01;99254.00;;;
79488;BMP180;68949;53.176;18.088;2023-07-28T08:12:28;99250.60;;;
79488;BMP180;68949;53.176;18.088;2023-07-28T08:14:54;99249.40;;;
79488;BMP180;68949;53.176;18.088;2023-07-28T08:17:21;99256.00;;;
79488;BMP180;68949;53.176;18.088;2023-07-28T08:19:48;99256.00;;;
79488;BMP180;68949;53.176;18.088;2023-07-28T08:22:14;99269.40;;;
79488;BMP180;68949;53.176;18.088;2023-07-28T08:24:41;99273.00;;;
79488;BMP180;68949;53.176;18.088;2023-07-28T08:27:08;99273.60;;;
79488;BMP180;68949;53.176;18.088;2023-07-28T08:29:35;99268.80;;;
79488;BMP180;68949;53.176;18.088;2023-07-28T08:32:02;99266.20;;;
79488;BMP180;68949;53.176;18.088;2023-07-28T08:34:29;99262.60;;;
79488;BMP180;68949;53.176;18.088;2023-07-28T08:36:55;99263.20;;;
79488;BMP180;68949;53.176;18.088;2023-07-28T08:39:22;99267.40;;;
79488;BMP180;68949;53.176;18.088;2023-07-28T08:42:01;99266.60;;;
79488;BMP180;68949;53.176;18.088;2023-07-28T08:44:33;99273.60;;;
79488;BMP180;68949;53.176;18.088;2023-07-28T08:47:03;99284.00;;;
79488;BMP180;68949;53.176;18.088;2023-07-28T08:49:32;99268.40;;;
79488;BMP180;68949;53.176;18.088;2023-07-28T08:52:04;99248.40;;;
79488;BMP180;68949;53.176;18.088;2023-07-28T08:54:31;99248.40;;;
79488;BMP180;68949;53.176;18.088;2023-07-28T08:56:58;99251.40;;;
79488;BMP180;68949;53.176;18.088;2023-07-28T08:59:27;99246.20;;;
79488;BMP180;68949;53.176;18.088;2023-07-28T09:01:57;99238.00;;;
79488;BMP180;68949;53.176;18.088;2023-07-28T09:04:27;99240.60;;;
79488;BMP180;68949;53.176;18.088;2023-07-28T09:06:54;99248.40;;;
79488;BMP180;68949;53.176;18.088;2023-07-28T09:09:22;99245.00;;;
79488;BMP180;68949;53.176;18.088;2023-07-28T09:11:53;99241.20;;;
79488;BMP180;68949;53.176;18.088;2023-07-28T09:14:21;99246.60;;;
79488;BMP180;68949;53.176;18.088;2023-07-28T09:16:50;99238.60;;;
79488;BMP180;68949;53.176;18.088;2023-07-28T09:19:17;99232.20;;;
79488;BMP180;68949;53.176;18.088;2023-07-28T09:21:44;99232.60;;;
79488;BMP180;68949;53.176;18.088;2023-07-28T09:24:13;99236.60;;;
79488;BMP180;68949;53.176;18.088;2023-07-28T09:26:46;99234.00;;;
79488;BMP180;68949;53.176;18.088;2023-07-28T09:29:16;99238.40;;;
79488;BMP180;68949;53.176;18.088;2023-07-28T09:31:46;99237.60;;;
79488;BMP180;68949;53.176;18.088;2023-07-28T09:34:24;99235.80;;;
79488;BMP180;68949;53.176;18.088;2023-07-28T09:36:56;99236.60;;;
79488;BMP180;68949;53.176;18.088;2023-07-28T09:39:24;99243.20;;;
79488;BMP180;68949;53.176;18.088;2023-07-28T09:41:52;99241.60;;;
79488;BMP180;68949;53.176;18.088;2023-07-28T09:44:19;99241.00;;;
79488;BMP180;68949;53.176;18.088;2023-07-28T09:46:53;99242.40;;;
79488;BMP180;68949;53.176;18.088;2023-07-28T09:49:35;99237.80;;;
79488;BMP180;68949;53.176;18.088;2023-07-28T09:52:09;99237.20;;;
79488;BMP180;68949;53.176;18.088;2023-07-28T09:54:40;99239.60;;;
79488;BMP180;68949;53.176;18.088;2023-07-28T09:57:12;99234.00;;;
79488;BMP180;68949;53.176;18.088;2023-07-28T09:59:47;99234.00;;;
79488;BMP180;68949;53.176;18.088;2023-07-28T10:02:14;99229.20;;;
79488;BMP180;68949;53.176;18.088;2023-07-28T10:04:42;99224.20;;;
79488;BMP180;68949;53.176;18.088;2023-07-28T10:07:11;99219.60;;;
79488;BMP180;68949;53.176;18.088;2023-07-28T10:09:40;99217.80;;;
79488;BMP180;68949;53.176;18.088;2023-07-28T10:12:18;99219.00;;;
79488;BMP180;68949;53.176;18.088;2023-07-28T10:15:03;99213.40;;;
79488;BMP180;68949;53.176;18.088;2023-07-28T10:17:35;99208.20;;;
79488;BMP180;68949;53.176;18.088;2023-07-28T10:20:27;99204.60;;;
79488;BMP180;68949;53.176;18.088;2023-07-28T10:23:22;99198.40;;;
79488;BMP180;68949;53.176;18.088;2023-07-28T10:25:58;99203.40;;;
79488;BMP180;68949;53.176;18.088;2023-07-28T10:31:03;99192.00;;;
79488;BMP180;68949;53.176;18.088;2023-07-28T10:33:44;99203.20;;;
79488;BMP180;68949;53.176;18.088;2023-07-28T10:36:33;99199.00;;;
79488;BMP180;68949;53.176;18.088;2023-07-28T10:41:35;99198.40;;;
79488;BMP180;68949;53.176;18.088;2023-07-28T10:44:02;99195.40;;;
79488;BMP180;68949;53.176;18.088;2023-07-28T10:46:29;99192.60;;;
79488;BMP180;68949;53.176;18.088;2023-07-28T10:49:05;99200.00;;;
79488;BMP180;68949;53.176;18.088;2023-07-28T10:51:32;99196.00;;;
79488;BMP180;68949;53.176;18.088;2023-07-28T10:54:00;99192.00;;;
79488;BMP180;68949;53.176;18.088;2023-07-28T10:56:29;99198.60;;;
79488;BMP180;68949;53.176;18.088;2023-07-28T10:59:04;99208.80;;;
79488;BMP180;68949;53.176;18.088;2023-07-28T11:01:36;99219.00;;;
79488;BMP180;68949;53.176;18.088;2023-07-28T11:04:20;99223.80;;;
79488;BMP180;68949;53.176;18.088;2023-07-28T11:06:49;99222.00;;;
79488;BMP180;68949;53.176;18.088;2023-07-28T11:09:21;99225.40;;;
79488;BMP180;68949;53.176;18.088;2023-07-28T11:11:50;99220.00;;;
79488;BMP180;68949;53.176;18.088;2023-07-28T11:14:17;99217.40;;;
79488;BMP180;68949;53.176;18.088;2023-07-28T11:16:45;99220.40;;;
79488;BMP180;68949;53.176;18.088;2023-07-28T11:19:13;99222.00;;;
79488;BMP180;68949;53.176;18.088;2023-07-28T11:21:42;99215.60;;;
79488;BMP180;68949;53.176;18.088;2023-07-28T11:24:10;99209.00;;;
79488;BMP180;68949;53.176;18.088;2023-07-28T11:26:39;99214.80;;;
79488;BMP180;68949;53.176;18.088;2023-07-28T11:29:06;99220.60;;;
79488;BMP180;68949;53.176;18.088;2023-07-28T11:31:34;99218.00;;;
79488;BMP180;68949;53.176;18.088;2023-07-28T11:34:01;99215.20;;;
79488;BMP180;68949;53.176;18.088;2023-07-28T11:36:30;99214.60;;;
79488;BMP180;68949;53.176;18.088;2023-07-28T11:38:59;99206.60;;;
79488;BMP180;68949;53.176;18.088;2023-07-28T11:41:27;99195.60;;;
79488;BMP180;68949;53.176;18.088;2023-07-28T11:43:54;99193.60;;;
79488;BMP180;68949;53.176;18.088;2023-07-28T11:46:39;99196.80;;;
79488;BMP180;68949;53.176;18.088;2023-07-28T11:49:19;99191.40;;;
79488;BMP180;68949;53.176;18.088;2023-07-28T11:51:54;99195.00;;;
79488;BMP180;68949;53.176;18.088;2023-07-28T11:54:25;99203.80;;;
79488;BMP180;68949;53.176;18.088;2023-07-28T11:56:56;99209.60;;;
79488;BMP180;68949;53.176;18.088;2023-07-28T11:59:24;99203.80;;;
79488;BMP180;68949;53.176;18.088;2023-07-28T12:01:56;99212.80;;;
79488;BMP180;68949;53.176;18.088;2023-07-28T12:04:28;99195.80;;;
79488;BMP180;68949;53.176;18.088;2023-07-28T12:07:11;99203.20;;;
79488;BMP180;68949;53.176;18.088;2023-07-28T12:09:49;99208.00;;;
79488;BMP180;68949;53.176;18.088;2023-07-28T12:12:23;99215.00;;;
79488;BMP180;68949;53.176;18.088;2023-07-28T12:14:50;99218.20;;;
79488;BMP180;68949;53.176;18.088;2023-07-28T12:17:23;99226.80;;;
79488;BMP180;68949;53.176;18.088;2023-07-28T12:20:21;99224.00;;;
79488;BMP180;68949;53.176;18.088;2023-07-28T12:22:48;99217.80;;;
79488;BMP180;68949;53.176;18.088;2023-07-28T12:25:15;99222.60;;;
79488;BMP180;68949;53.176;18.088;2023-07-28T12:27:41;99217.60;;;
79488;BMP180;68949;53.176;18.088;2023-07-28T12:30:08;99223.60;;;
79488;BMP180;68949;53.176;18.088;2023-07-28T12:32:36;99213.60;;;
79488;BMP180;68949;53.176;18.088;2023-07-28T12:35:03;99209.60;;;
79488;BMP180;68949;53.176;18.088;2023-07-28T12:37:30;99214.80;;;
79488;BMP180;68949;53.176;18.088;2023-07-28T12:39:57;99193.00;;;
79488;BMP180;68949;53.176;18.088;2023-07-28T12:42:27;99189.20;;;
79488;BMP180;68949;53.176;18.088;2023-07-28T12:44:53;99187.20;;;
79488;BMP180;68949;53.176;18.088;2023-07-28T12:47:20;99187.20;;;
79488;BMP180;68949;53.176;18.088;2023-07-28T12:49:47;99167.60;;;
79488;BMP180;68949;53.176;18.088;2023-07-28T12:52:13;99150.00;;;
79488;BMP180;68949;53.176;18.088;2023-07-28T12:54:41;99181.20;;;
79488;BMP180;68949;53.176;18.088;2023-07-28T12:57:10;99191.20;;;
79488;BMP180;68949;53.176;18.088;2023-07-28T12:59:39;99184.60;;;
79488;BMP180;68949;53.176;18.088;2023-07-28T13:02:06;99163.00;;;
79488;BMP180;68949;53.176;18.088;2023-07-28T13:04:35;99167.60;;;
79488;BMP180;68949;53.176;18.088;2023-07-28T13:07:02;99178.00;;;
79488;BMP180;68949;53.176;18.088;2023-07-28T13:09:29;99182.60;;;
79488;BMP180;68949;53.176;18.088;2023-07-28T13:11:56;99153.40;;;
79488;BMP180;68949;53.176;18.088;2023-07-28T13:14:22;99141.00;;;
79488;BMP180;68949;53.176;18.088;2023-07-28T13:16:49;99172.00;;;
79488;BMP180;68949;53.176;18.088;2023-07-28T13:19:16;99160.20;;;
79488;BMP180;68949;53.176;18.088;2023-07-28T13:21:43;99158.60;;;
79488;BMP180;68949;53.176;18.088;2023-07-28T13:24:09;99165.00;;;
79488;BMP180;68949;53.176;18.088;2023-07-28T13:26:36;99179.60;;;
79488;BMP180;68949;53.176;18.088;2023-07-28T13:29:02;99171.00;;;
79488;BMP180;68949;53.176;18.088;2023-07-28T13:31:34;99173.00;;;
79488;BMP180;68949;53.176;18.088;2023-07-28T13:34:00;99168.20;;;
79488;BMP180;68949;53.176;18.088;2023-07-28T13:36:27;99171.40;;;
79488;BMP180;68949;53.176;18.088;2023-07-28T13:38:54;99154.40;;;
79488;BMP180;68949;53.176;18.088;2023-07-28T13:41:20;99160.20;;;
79488;BMP180;68949;53.176;18.088;2023-07-28T13:43:47;99177.20;;;
79488;BMP180;68949;53.176;18.088;2023-07-28T13:46:14;99161.40;;;
79488;BMP180;68949;53.176;18.088;2023-07-28T13:48:40;99181.40;;;
79488;BMP180;68949;53.176;18.088;2023-07-28T13:51:07;99225.40;;;
79488;BMP180;68949;53.176;18.088;2023-07-28T13:53:34;99237.00;;;
79488;BMP180;68949;53.176;18.088;2023-07-28T13:56:00;99246.60;;;
79488;BMP180;68949;53.176;18.088;2023-07-28T13:58:27;99250.00;;;
79488;BMP180;68949;53.176;18.088;2023-07-28T14:00:54;99262.40;;;
79488;BMP180;68949;53.176;18.088;2023-07-28T14:03:21;99238.80;;;
79488;BMP180;68949;53.176;18.088;2023-07-28T14:05:48;99245.40;;;
79488;BMP180;68949;53.176;18.088;2023-07-28T14:08:15;99253.40;;;
79488;BMP180;68949;53.176;18.088;2023-07-28T14:10:46;99242.20;;;
79488;BMP180;68949;53.176;18.088;2023-07-28T14:13:13;99235.60;;;
79488;BMP180;68949;53.176;18.088;2023-07-28T14:15:40;99240.60;;;
79488;BMP180;68949;53.176;18.088;2023-07-28T14:18:07;99233.80;;;
79488;BMP180;68949;53.176;18.088;2023-07-28T14:20:43;99249.00;;;
79488;BMP180;68949;53.176;18.088;2023-07-28T14:23:25;99244.20;;;
79488;BMP180;68949;53.176;18.088;2023-07-28T14:25:53;99236.40;;;
79488;BMP180;68949;53.176;18.088;2023-07-28T14:28:22;99241.60;;;
79488;BMP180;68949;53.176;18.088;2023-07-28T14:31:02;99259.60;;;
79488;BMP180;68949;53.176;18.088;2023-07-28T14:33:30;99265.40;;;
79488;BMP180;68949;53.176;18.088;2023-07-28T14:35:57;99267.00;;;
79488;BMP180;68949;53.176;18.088;2023-07-28T14:38:24;99262.80;;;
79488;BMP180;68949;53.176;18.088;2023-07-28T14:40:51;99255.20;;;
79488;BMP180;68949;53.176;18.088;2023-07-28T14:43:18;99260.80;;;
79488;BMP180;68949;53.176;18.088;2023-07-28T14:45:49;99256.20;;;
79488;BMP180;68949;53.176;18.088;2023-07-28T14:48:18;99255.20;;;
79488;BMP180;68949;53.176;18.088;2023-07-28T14:50:47;99252.20;;;
79488;BMP180;68949;53.176;18.088;2023-07-28T14:53:37;99251.20;;;
79488;BMP180;68949;53.176;18.088;2023-07-28T14:56:05;99246.80;;;
79488;BMP180;68949;53.176;18.088;2023-07-28T14:58:32;99258.00;;;
79488;BMP180;68949;53.176;18.088;2023-07-28T15:01:00;99260.40;;;
79488;BMP180;68949;53.176;18.088;2023-07-28T15:03:29;99261.40;;;
79488;BMP180;68949;53.176;18.088;2023-07-28T15:05:57;99268.40;;;
79488;BMP180;68949;53.176;18.088;2023-07-28T15:08:24;99272.80;;;
79488;BMP180;68949;53.176;18.088;2023-07-28T15:10:51;99268.40;;;
79488;BMP180;68949;53.176;18.088;2023-07-28T15:13:19;99258.40;;;
79488;BMP180;68949;53.176;18.088;2023-07-28T15:15:47;99245.80;;;